createdAt,value
2019-04-14T00:00:40.460Z,8.30
2019-04-14T00:03:15.335Z,8.30
2019-04-14T00:05:49.592Z,8.30
2019-04-14T00:08:22.022Z,8.30
2019-04-14T00:10:53.387Z,8.30
2019-04-14T00:13:26.312Z,8.30
2019-04-14T00:15:58.992Z,8.30
2019-04-14T00:18:29.745Z,8.30
2019-04-14T00:21:04.992Z,8.30
2019-04-14T00:23:37.492Z,8.30
2019-04-14T00:26:31.352Z,8.30
2019-04-14T00:29:02.827Z,8.40
2019-04-14T00:31:34.943Z,8.30
2019-04-14T00:34:07.908Z,8.30
2019-04-14T00:36:48.146Z,8.30
2019-04-14T00:39:29.994Z,8.30
2019-04-14T00:42:06.606Z,8.30
2019-04-14T00:44:41.579Z,8.30
2019-04-14T00:47:19.931Z,8.30
2019-04-14T00:49:52.977Z,8.30
2019-04-14T00:52:23.396Z,8.30
2019-04-14T00:54:54.372Z,8.30
2019-04-14T00:57:25.514Z,8.30
2019-04-14T00:59:57.325Z,8.30
2019-04-14T01:02:29.606Z,8.30
2019-04-14T01:05:06.822Z,8.30
2019-04-14T01:07:37.309Z,8.30
2019-04-14T01:10:08.270Z,8.30
2019-04-14T01:12:41.722Z,8.20
2019-04-14T01:15:11.609Z,8.30
2019-04-14T01:17:42.336Z,8.20
2019-04-14T01:20:13.125Z,8.30
2019-04-14T01:22:44.996Z,8.20
2019-04-14T01:25:19.263Z,8.20
2019-04-14T01:27:47.803Z,8.30
2019-04-14T01:30:18.407Z,8.30
2019-04-14T01:32:56.770Z,8.30
2019-04-14T01:35:27.459Z,8.30
2019-04-14T01:38:01.621Z,8.30
2019-04-14T01:40:33.761Z,8.30
2019-04-14T01:43:04.489Z,8.30
2019-04-14T01:45:35.917Z,8.20
2019-04-14T01:48:06.797Z,8.20
2019-04-14T01:50:45.226Z,8.20
2019-04-14T01:53:42.273Z,8.30
2019-04-14T01:56:15.017Z,8.40
2019-04-14T01:58:51.262Z,8.20
2019-04-14T02:01:23.902Z,8.20
2019-04-14T02:03:56.231Z,8.20
2019-04-14T02:06:27.011Z,8.20
2019-04-14T02:08:58.867Z,8.00
2019-04-14T02:11:31.273Z,8.20
2019-04-14T02:14:06.027Z,8.20
2019-04-14T02:16:41.974Z,8.20
2019-04-14T02:19:09.531Z,8.20
2019-04-14T02:21:41.300Z,8.20
2019-04-14T02:24:17.824Z,8.10
2019-04-14T02:26:46.051Z,8.10
2019-04-14T02:29:16.847Z,8.20
2019-04-14T02:32:17.593Z,8.20
2019-04-14T02:34:47.957Z,8.30
2019-04-14T02:37:24.329Z,8.20
2019-04-14T02:47:44.823Z,8.10
2019-04-14T02:52:34.915Z,8.40
2019-04-14T02:55:04.344Z,8.10
2019-04-14T02:57:38.244Z,8.10
2019-04-14T03:00:16.736Z,8.20
2019-04-14T03:02:44.622Z,8.10
2019-04-14T03:05:24.491Z,8.10
2019-04-14T03:07:54.178Z,8.10
2019-04-14T03:10:33.949Z,8.10
2019-04-14T03:13:09.440Z,8.10
2019-04-14T03:15:39.678Z,8.30
2019-04-14T03:18:33.934Z,8.10
2019-04-14T03:21:04.340Z,8.10
2019-04-14T03:23:50.632Z,8.20
2019-04-14T03:26:23.010Z,8.20
2019-04-14T03:29:10.605Z,8.10
2019-04-14T03:34:30.211Z,8.00
2019-04-14T03:39:23.435Z,8.10
2019-04-14T03:42:00.701Z,8.10
2019-04-14T03:44:37.214Z,8.10
2019-04-14T03:47:06.396Z,8.10
2019-04-14T03:49:56.442Z,8.10
2019-04-14T03:52:15.172Z,8.10
2019-04-14T03:54:33.159Z,8.10
2019-04-14T03:56:53.732Z,8.10
2019-04-14T03:59:24.369Z,8.10
2019-04-14T04:01:56.554Z,8.10
2019-04-14T04:04:29.733Z,8.10
2019-04-14T04:07:01.741Z,8.10
2019-04-14T04:09:34.368Z,8.10
2019-04-14T04:12:05.336Z,7.90
2019-04-14T04:14:38.256Z,8.10
2019-04-14T04:17:21.207Z,8.10
2019-04-14T04:20:08.826Z,8.10
2019-04-14T04:22:57.307Z,8.10
2019-04-14T04:25:33.296Z,8.10
2019-04-14T04:28:06.546Z,8.10
2019-04-14T04:30:38.667Z,8.10
2019-04-14T04:33:10.939Z,8.10
2019-04-14T04:35:52.782Z,8.00
2019-04-14T04:38:25.183Z,8.00
2019-04-14T04:40:57.144Z,8.00
2019-04-14T04:43:27.765Z,8.10
2019-04-14T04:45:58.739Z,8.10
2019-04-14T04:48:29.247Z,8.10
2019-04-14T04:51:00.666Z,8.10
2019-04-14T04:53:31.402Z,8.10
2019-04-14T04:56:01.919Z,8.10
2019-04-14T04:58:32.748Z,8.10
2019-04-14T05:01:05.642Z,8.20
2019-04-14T05:03:36.860Z,8.20
2019-04-14T05:06:46.228Z,8.20
2019-04-14T05:09:21.420Z,8.20
2019-04-14T05:14:47.990Z,8.30
2019-04-14T05:17:23.529Z,8.30
2019-04-14T05:19:54.584Z,8.30
2019-04-14T05:22:26.796Z,8.30
2019-04-14T05:24:57.772Z,8.30
2019-04-14T05:27:28.342Z,8.40
2019-04-14T05:30:02.384Z,8.40
2019-04-14T05:32:32.635Z,8.40
2019-04-14T05:35:07.314Z,8.40
2019-04-14T05:37:37.830Z,8.40
2019-04-14T05:40:10.475Z,8.50
2019-04-14T05:42:42.731Z,8.50
2019-04-14T05:45:13.836Z,8.90
2019-04-14T05:47:44.274Z,8.70
2019-04-14T05:50:16.500Z,8.80
2019-04-14T05:55:39.584Z,8.80
2019-04-14T05:58:10.062Z,8.80
2019-04-14T06:00:42.250Z,8.80
2019-04-14T06:03:16.767Z,8.70
2019-04-14T06:05:47.347Z,8.80
2019-04-14T06:08:20.591Z,8.80
2019-04-14T06:10:51.038Z,8.50
2019-04-14T06:13:21.580Z,8.80
2019-04-14T06:15:54.857Z,8.80
2019-04-14T06:18:28.937Z,8.70
2019-04-14T06:20:59.486Z,8.70
2019-04-14T06:23:31.298Z,8.70
2019-04-14T06:26:02.293Z,8.70
2019-04-14T06:28:32.765Z,8.60
2019-04-14T06:31:18.316Z,8.60
2019-04-14T06:34:07.797Z,8.60
2019-04-14T06:36:58.079Z,8.60
2019-04-14T06:39:30.203Z,8.60
2019-04-14T06:42:01.781Z,8.60
2019-04-14T06:44:32.599Z,8.60
2019-04-14T06:47:03.760Z,8.60
2019-04-14T06:49:34.169Z,8.60
2019-04-14T06:52:05.175Z,8.60
2019-04-14T06:54:36.124Z,8.50
2019-04-14T06:57:06.719Z,8.60
2019-04-14T06:59:37.694Z,8.70
2019-04-14T07:02:08.703Z,8.70
2019-04-14T07:04:39.428Z,8.80
2019-04-14T07:07:10.339Z,8.80
2019-04-14T07:09:41.888Z,8.90
2019-04-14T07:12:14.339Z,9.00
2019-04-14T07:14:44.901Z,9.00
2019-04-14T07:17:15.540Z,9.10
2019-04-14T07:19:46.207Z,9.20
2019-04-14T07:22:16.950Z,9.20
2019-04-14T07:24:50.722Z,9.30
2019-04-14T07:27:22.487Z,9.30
2019-04-14T07:30:01.051Z,9.40
2019-04-14T07:32:33.974Z,9.60
2019-04-14T07:35:12.475Z,9.50
2019-04-14T07:37:47.581Z,9.80
2019-04-14T07:40:23.253Z,9.80
2019-04-14T07:42:55.892Z,9.90
2019-04-14T07:45:27.992Z,10.00
2019-04-14T07:48:00.111Z,10.10
2019-04-14T07:53:34.794Z,10.40
2019-04-14T07:56:18.920Z,10.50
2019-04-14T07:59:03.306Z,10.50
2019-04-14T08:01:51.749Z,10.60
2019-04-14T08:04:23.883Z,10.70
2019-04-14T08:06:54.650Z,10.80
2019-04-14T08:09:25.229Z,10.80
2019-04-14T08:11:55.784Z,10.90
2019-04-14T08:14:26.308Z,11.10
2019-04-14T08:16:57.514Z,11.30
2019-04-14T08:19:28.206Z,11.80
2019-04-14T08:22:04.184Z,12.30
2019-04-14T08:24:35.629Z,12.60
2019-04-14T08:27:08.280Z,13.00
2019-04-14T08:29:39.545Z,13.30
2019-04-14T08:32:10.065Z,13.70
2019-04-14T08:34:45.309Z,14.00
2019-04-14T08:37:17.164Z,14.30
2019-04-14T08:39:50.165Z,14.30
2019-04-14T08:42:22.889Z,14.20
2019-04-14T08:44:55.050Z,14.10
2019-04-14T08:47:27.780Z,14.30
2019-04-14T08:50:03.278Z,14.30
2019-04-14T08:52:38.473Z,14.30
2019-04-14T08:55:22.413Z,14.40
2019-04-14T08:57:57.832Z,14.50
2019-04-14T09:00:33.070Z,14.90
2019-04-14T09:03:14.493Z,15.20
2019-04-14T09:05:47.015Z,15.30
2019-04-14T09:08:19.163Z,15.20
2019-04-14T09:11:01.148Z,15.10
2019-04-14T09:13:31.679Z,15.50
2019-04-14T09:16:02.085Z,16.20
2019-04-14T09:18:32.506Z,17.00
2019-04-14T09:21:03.006Z,17.90
2019-04-14T09:23:33.520Z,19.00
2019-04-14T09:26:04.045Z,19.20
2019-04-14T09:28:34.696Z,19.40
2019-04-14T09:31:05.557Z,19.80
2019-04-14T09:33:36.128Z,20.40
2019-04-14T09:36:08.544Z,20.80
2019-04-14T09:38:39.019Z,21.40
2019-04-14T09:41:09.601Z,21.40
2019-04-14T09:43:41.884Z,21.30
2019-04-14T09:46:16.320Z,21.40
2019-04-14T09:48:48.205Z,21.50
2019-04-14T09:51:20.170Z,21.10
2019-04-14T09:53:50.593Z,21.00
2019-04-14T09:56:21.191Z,20.90
2019-04-14T09:58:52.463Z,20.70
2019-04-14T10:01:24.719Z,21.00
2019-04-14T10:03:55.322Z,21.20
2019-04-14T10:06:25.965Z,21.00
2019-04-14T10:08:56.697Z,21.00
2019-04-14T10:11:27.407Z,21.20
2019-04-14T10:13:58.091Z,21.00
2019-04-14T10:16:28.679Z,20.80
2019-04-14T10:18:59.197Z,20.50
2019-04-14T10:21:29.686Z,19.90
2019-04-14T10:24:00.265Z,19.90
2019-04-14T10:26:30.920Z,20.10
2019-04-14T10:29:01.396Z,20.70
2019-04-14T10:31:31.943Z,20.90
2019-04-14T10:34:02.423Z,21.10
2019-04-14T10:36:33.792Z,21.40
2019-04-14T10:39:06.986Z,21.40
2019-04-14T10:41:37.367Z,21.20
2019-04-14T10:44:07.844Z,21.00
2019-04-14T10:46:38.435Z,21.10
2019-04-14T10:49:09.062Z,21.00
2019-04-14T10:51:39.618Z,21.00
2019-04-14T10:54:10.094Z,21.10
2019-04-14T10:56:40.778Z,20.70
2019-04-14T10:59:11.434Z,20.50
2019-04-14T11:01:42.154Z,20.30
2019-04-14T11:04:13.211Z,19.80
2019-04-14T11:06:45.329Z,19.20
2019-04-14T11:09:16.788Z,19.20
2019-04-14T11:11:47.228Z,19.20
2019-04-14T11:14:17.663Z,19.20
2019-04-14T11:16:48.149Z,19.40
2019-04-14T11:19:18.571Z,19.40
2019-04-14T11:21:49.809Z,19.50
2019-04-14T11:24:20.185Z,19.60
2019-04-14T11:26:51.160Z,19.90
2019-04-14T11:29:21.690Z,19.90
2019-04-14T11:31:56.234Z,19.80
2019-04-14T11:34:45.183Z,19.90
2019-04-14T11:37:30.270Z,20.10
2019-04-14T11:40:06.026Z,19.90
2019-04-14T11:42:36.574Z,19.80
2019-04-14T11:45:08.273Z,19.60
2019-04-14T11:47:39.376Z,19.50
2019-04-14T11:50:11.599Z,19.50
2019-04-14T11:52:42.229Z,19.40
2019-04-14T11:55:15.205Z,19.30
2019-04-14T11:57:45.923Z,19.30
2019-04-14T12:02:57.782Z,19.20
2019-04-14T12:05:37.431Z,19.30
2019-04-14T12:08:27.945Z,19.30
2019-04-14T12:10:58.397Z,19.70
2019-04-14T12:13:29.096Z,20.10
2019-04-14T12:16:00.118Z,20.30
2019-04-14T12:18:30.784Z,20.50
2019-04-14T12:21:02.135Z,20.60
2019-04-14T12:23:32.710Z,20.70
2019-04-14T12:26:05.561Z,20.90
2019-04-14T12:28:38.387Z,21.30
2019-04-14T12:31:10.825Z,21.50
2019-04-14T12:33:41.405Z,21.90
2019-04-14T12:36:14.936Z,21.70
2019-04-14T12:38:45.960Z,21.50
2019-04-14T12:41:18.323Z,21.20
2019-04-14T12:44:06.704Z,20.70
2019-04-14T12:46:41.627Z,20.60
2019-04-14T12:49:16.329Z,20.40
2019-04-14T12:51:54.403Z,20.20
2019-04-14T12:54:26.465Z,20.00
2019-04-14T12:56:56.934Z,19.90
2019-04-14T12:59:28.405Z,19.70
2019-04-14T13:02:06.263Z,19.70
2019-04-14T13:04:38.558Z,19.70
2019-04-14T13:07:09.233Z,19.80
2019-04-14T13:09:40.610Z,19.90
2019-04-14T13:12:11.241Z,19.80
2019-04-14T13:14:42.712Z,19.70
2019-04-14T13:17:13.258Z,19.80
2019-04-14T13:19:44.030Z,20.00
2019-04-14T13:22:15.201Z,19.90
2019-04-14T13:24:45.665Z,19.90
2019-04-14T13:27:17.267Z,19.80
2019-04-14T13:29:47.798Z,19.80
2019-04-14T13:32:18.459Z,19.80
2019-04-14T13:34:48.970Z,19.90
2019-04-14T13:37:21.598Z,19.90
2019-04-14T13:39:52.960Z,19.80
2019-04-14T13:42:23.514Z,19.90
2019-04-14T13:44:53.947Z,19.80
2019-04-14T13:47:25.098Z,19.80
2019-04-14T13:49:56.247Z,19.90
2019-04-14T13:52:26.639Z,19.80
2019-04-14T13:54:57.187Z,19.80
2019-04-14T13:57:27.666Z,19.90
2019-04-14T13:59:58.197Z,19.90
2019-04-14T14:02:28.754Z,19.70
2019-04-14T14:04:59.257Z,19.70
2019-04-14T14:07:30.023Z,19.60
2019-04-14T14:10:03.484Z,19.60
2019-04-14T14:12:35.670Z,19.50
2019-04-14T14:15:26.800Z,19.30
2019-04-14T14:18:01.772Z,19.20
2019-04-14T14:20:50.661Z,19.10
2019-04-14T14:23:23.582Z,19.10
2019-04-14T14:26:01.794Z,19.00
2019-04-14T14:28:32.941Z,19.00
2019-04-14T14:31:03.623Z,18.90
2019-04-14T14:33:34.147Z,18.90
2019-04-14T14:36:04.737Z,18.90
2019-04-14T14:38:35.246Z,18.90
2019-04-14T14:41:08.348Z,18.90
2019-04-14T14:43:38.771Z,18.80
2019-04-14T14:46:22.997Z,18.90
2019-04-14T14:49:07.841Z,18.80
2019-04-14T14:51:52.198Z,18.90
2019-04-14T14:54:23.679Z,18.90
2019-04-14T14:56:54.215Z,18.90
2019-04-14T14:59:24.686Z,18.80
2019-04-14T15:01:55.823Z,18.80
2019-04-14T15:04:26.283Z,18.80
2019-04-14T15:06:56.933Z,18.80
2019-04-14T15:09:27.566Z,18.60
2019-04-14T15:11:59.044Z,18.60
2019-04-14T15:14:32.100Z,18.60
2019-04-14T15:17:02.637Z,18.60
2019-04-14T15:19:33.116Z,18.50
2019-04-14T15:22:07.134Z,18.30
2019-04-14T15:24:37.731Z,18.30
2019-04-14T15:27:10.257Z,18.10
2019-04-14T15:29:41.354Z,18.10
2019-04-14T15:32:13.394Z,18.00
2019-04-14T15:34:44.857Z,18.00
2019-04-14T15:37:16.051Z,17.90
2019-04-14T15:39:49.374Z,17.70
2019-04-14T15:42:21.759Z,17.60
2019-04-14T15:44:52.317Z,17.50
2019-04-14T15:47:23.205Z,17.40
2019-04-14T15:49:54.153Z,17.30
2019-04-14T15:52:25.485Z,17.20
2019-04-14T15:54:56.494Z,17.20
2019-04-14T15:57:32.231Z,17.20
2019-04-14T16:00:22.322Z,17.00
2019-04-14T16:03:10.197Z,17.00
2019-04-14T16:05:45.093Z,16.80
2019-04-14T16:08:17.238Z,16.70
2019-04-14T16:10:49.372Z,16.60
2019-04-14T16:13:24.867Z,16.60
2019-04-14T16:15:57.058Z,16.50
2019-04-14T16:18:33.362Z,16.40
2019-04-14T16:21:03.941Z,16.40
2019-04-14T16:23:34.531Z,16.40
2019-04-14T16:26:15.767Z,16.30
2019-04-14T16:29:04.471Z,16.20
2019-04-14T16:31:39.403Z,16.20
2019-04-14T16:34:18.083Z,16.40
2019-04-14T16:36:50.359Z,16.10
2019-04-14T16:39:20.952Z,16.00
2019-04-14T16:41:51.943Z,16.00
2019-04-14T16:44:24.486Z,15.90
2019-04-14T16:46:54.965Z,15.80
2019-04-14T16:49:25.405Z,15.80
2019-04-14T16:52:03.344Z,15.80
2019-04-14T16:54:47.564Z,15.70
2019-04-14T16:57:28.767Z,15.70
2019-04-14T16:59:58.405Z,15.60
2019-04-14T17:02:29.113Z,15.60
2019-04-14T17:04:59.638Z,15.70
2019-04-14T17:07:30.699Z,15.50
2019-04-14T17:10:08.927Z,15.40
2019-04-14T17:12:39.440Z,15.40
2019-04-14T17:15:17.921Z,15.30
2019-04-14T17:18:05.017Z,15.30
2019-04-14T17:20:53.619Z,15.00
2019-04-14T17:23:40.777Z,15.20
2019-04-14T17:26:28.384Z,15.20
2019-04-14T17:29:00.589Z,15.00
2019-04-14T17:31:38.687Z,15.00
2019-04-14T17:34:13.816Z,14.90
2019-04-14T17:36:46.771Z,14.90
2019-04-14T17:39:31.921Z,14.90
2019-04-14T17:42:06.998Z,14.80
2019-04-14T17:44:56.938Z,14.80
2019-04-14T17:47:45.696Z,14.80
2019-04-14T17:50:18.239Z,14.70
2019-04-14T17:52:50.394Z,14.60
2019-04-14T17:55:34.767Z,14.60
2019-04-14T17:58:07.123Z,14.50
2019-04-14T18:00:51.393Z,14.50
2019-04-14T18:03:39.697Z,14.40
2019-04-14T18:06:14.626Z,14.60
2019-04-14T18:08:49.530Z,14.40
2019-04-14T18:11:21.801Z,14.30
2019-04-14T18:14:12.317Z,14.30
2019-04-14T18:16:53.544Z,14.20
2019-04-14T18:19:25.650Z,14.20
2019-04-14T18:21:56.173Z,14.10
2019-04-14T18:24:26.694Z,14.00
2019-04-14T18:26:57.206Z,14.00
2019-04-14T18:29:33.423Z,13.90
2019-04-14T18:32:08.904Z,13.90
2019-04-14T18:34:53.149Z,13.90
2019-04-14T18:37:31.395Z,13.80
2019-04-14T18:40:11.605Z,13.80
2019-04-14T18:42:50.239Z,13.80
2019-04-14T18:45:30.219Z,13.70
2019-04-14T18:48:09.130Z,13.70
2019-04-14T18:50:41.350Z,13.70
2019-04-14T18:53:16.396Z,13.70
2019-04-14T18:56:04.730Z,13.60
2019-04-14T18:58:42.992Z,13.60
2019-04-14T19:01:15.286Z,13.50
2019-04-14T19:03:45.778Z,13.40
2019-04-14T19:06:16.319Z,13.40
2019-04-14T19:08:47.572Z,13.40
2019-04-14T19:11:25.616Z,13.30
2019-04-14T19:14:03.324Z,13.30
2019-04-14T19:16:39.928Z,13.20
2019-04-14T19:19:11.886Z,13.10
2019-04-14T19:21:44.492Z,13.20
2019-04-14T19:24:14.913Z,13.10
2019-04-14T19:26:48.727Z,13.00
2019-04-14T19:29:27.640Z,13.00
2019-04-14T19:31:57.458Z,13.00
2019-04-14T19:34:31.540Z,12.90
2019-04-14T19:37:03.585Z,12.90
2019-04-14T19:39:37.495Z,12.70
2019-04-14T19:42:08.121Z,12.80
2019-04-14T19:44:39.120Z,12.80
2019-04-14T19:47:10.547Z,12.80
2019-04-14T19:49:41.172Z,12.80
2019-04-14T19:52:11.722Z,12.80
2019-04-14T19:54:42.328Z,12.80
2019-04-14T19:57:12.844Z,12.70
2019-04-14T19:59:43.402Z,12.70
2019-04-14T20:02:14.138Z,12.70
2019-04-14T20:04:44.562Z,12.40
2019-04-14T20:07:15.178Z,12.50
2019-04-14T20:12:47.123Z,12.60
2019-04-14T20:15:22.179Z,12.50
2019-04-14T20:17:55.341Z,12.50
2019-04-14T20:20:34.112Z,12.50
2019-04-14T20:23:12.387Z,12.40
2019-04-14T20:25:51.041Z,12.40
2019-04-14T20:28:29.652Z,12.40
2019-04-14T20:31:01.896Z,12.30
2019-04-14T20:33:32.409Z,12.30
2019-04-14T20:36:05.334Z,12.20
2019-04-14T20:38:37.977Z,12.20
2019-04-14T20:41:08.562Z,12.10
2019-04-14T20:43:39.049Z,12.00
2019-04-14T20:46:09.607Z,12.00
2019-04-14T20:48:40.825Z,11.90
2019-04-14T20:51:11.431Z,11.60
2019-04-14T20:53:42.111Z,11.80
2019-04-14T20:56:13.358Z,11.70
2019-04-14T20:58:46.973Z,11.70
2019-04-14T21:01:16.231Z,11.70
2019-04-14T21:03:48.329Z,11.70
2019-04-14T21:06:23.274Z,11.60
2019-04-14T21:08:55.377Z,11.60
2019-04-14T21:11:30.333Z,11.40
2019-04-14T21:14:15.316Z,11.60
2019-04-14T21:17:05.568Z,11.60
2019-04-14T21:19:46.509Z,11.60
2019-04-14T21:22:18.748Z,11.50
2019-04-14T21:24:50.759Z,11.50
2019-04-14T21:27:22.922Z,11.50
2019-04-14T21:30:04.449Z,11.40
2019-04-14T21:32:53.422Z,11.40
2019-04-14T21:35:29.580Z,11.40
2019-04-14T21:38:01.803Z,11.30
2019-04-14T21:40:43.072Z,11.30
2019-04-14T21:43:13.618Z,11.20
2019-04-14T21:45:44.168Z,11.20
2019-04-14T21:48:14.914Z,11.20
2019-04-14T21:50:46.209Z,11.20
2019-04-14T21:53:16.636Z,11.20
2019-04-14T21:55:51.625Z,11.00
2019-04-14T21:58:26.644Z,11.00
2019-04-14T22:01:39.044Z,11.20
2019-04-14T22:04:11.325Z,10.90
2019-04-14T22:06:43.470Z,10.80
2019-04-14T22:09:15.986Z,10.80
2019-04-14T22:11:46.436Z,10.70
2019-04-14T22:14:17.301Z,10.70
2019-04-14T22:16:47.915Z,10.70
2019-04-14T22:19:19.302Z,10.70
2019-04-14T22:21:51.803Z,10.70
2019-04-14T22:24:22.330Z,10.70
2019-04-14T22:26:52.746Z,10.70
2019-04-14T22:29:23.263Z,10.70
2019-04-14T22:31:53.679Z,10.60
2019-04-14T22:34:25.002Z,10.60
2019-04-14T22:36:55.456Z,10.60
2019-04-14T22:39:26.105Z,10.60
2019-04-14T22:41:56.724Z,10.20
2019-04-14T22:44:27.344Z,10.50
2019-04-14T22:46:57.963Z,10.40
2019-04-14T22:49:30.961Z,10.40
2019-04-14T22:52:02.543Z,10.40
2019-04-14T22:54:33.067Z,10.40
2019-04-14T22:57:04.510Z,10.30
2019-04-14T22:59:35.583Z,10.30
2019-04-14T23:02:08.378Z,10.30
2019-04-14T23:04:50.411Z,10.30
2019-04-14T23:07:29.148Z,10.30
2019-04-14T23:10:01.916Z,10.20
2019-04-14T23:18:35.677Z,10.20
2019-04-14T23:21:07.922Z,10.10
2019-04-14T23:23:57.349Z,10.10
2019-04-14T23:26:27.952Z,10.10
2019-04-14T23:28:58.553Z,10.10
2019-04-14T23:31:29.295Z,10.10
2019-04-14T23:33:59.862Z,10.10
2019-04-14T23:36:30.358Z,10.00
2019-04-14T23:39:00.799Z,10.00
2019-04-14T23:41:31.421Z,10.00
2019-04-14T23:44:02.142Z,10.00
2019-04-14T23:46:33.204Z,10.00
2019-04-14T23:49:04.141Z,10.00
2019-04-14T23:51:34.852Z,9.90
2019-04-14T23:54:06.427Z,9.90
2019-04-14T23:56:37.531Z,9.90
2019-04-14T23:59:12.308Z,9.90
